| time (UTC) | temp F | wind direction | speed knots | gust knots | rain 1hr in | rain 24hr in | rain mn in | humidity % | barometer mb |
| 20260906060059 | 72 | 0 | 0.0 | 0.9 | 0.00 | 0.01 | 0.00 | 93 | 1012.7 |
| 20260906054558 | 72 | 0 | 0.0 | 0.9 | 0.00 | 0.01 | 0.00 | 93 | 1012.7 |
| 20260906053058 | 72 | 13 | 0.0 | 2.6 | 0.00 | 0.01 | 0.00 | 93 | 1012.8 |
| 20260906051558 | 72 | 0 | 0.0 | 1.7 | 0.00 | 0.01 | 0.00 | 93 | 1013.1 |
| 20260906050116 | 73 | 0 | 0.0 | 1.7 | 0.00 | 0.01 | 0.00 | 92 | 1013.0 |
| 20260906044600 | 73 | 0 | 0.0 | 1.7 | 0.00 | 0.01 | 0.00 | 92 | 1013.1 |
| 20260906043108 | 73 | 0 | 0.0 | 0.9 | 0.00 | 0.01 | 0.00 | 92 | 1013.1 |
| 20260906041601 | 73 | 0 | 0.0 | 3.5 | 0.00 | 0.01 | 0.00 | 91 | 1012.8 |
| 20260906040114 | 74 | 0 | 0.0 | 1.7 | 0.00 | 0.01 | 0.00 | 91 | 1013.0 |
| 20260906034601 | 74 | 349 | 0.9 | 1.7 | 0.00 | 0.01 | 0.01 | 91 | 1013.0 |
| 20260906033101 | 74 | 333 | 0.9 | 1.7 | 0.00 | 0.01 | 0.01 | 91 | 1013.2 |
| 20260906031557 | 74 | 0 | 0.0 | 1.7 | 0.00 | 0.01 | 0.01 | 90 | 1013.4 |
| 20260906030125 | 74 | 79 | 0.0 | 1.7 | 0.00 | 0.01 | 0.01 | 90 | 1013.3 |
| 20260906024602 | 74 | 89 | 0.9 | 1.7 | 0.00 | 0.01 | 0.01 | 90 | 1013.4 |
| 20260906023121 | 74 | 0 | 0.9 | 5.2 | 0.00 | 0.01 | 0.01 | 90 | 1013.3 |
| 20260906021611 | 74 | 194 | 0.9 | 2.6 | 0.00 | 0.01 | 0.01 | 90 | 1012.9 |
| 20260906020100 | 74 | 0 | 0.0 | 1.7 | 0.00 | 0.01 | 0.01 | 90 | 1012.6 |
| 20260906014621 | 75 | 11 | 0.0 | 1.7 | 0.00 | 0.01 | 0.01 | 90 | 1012.4 |
| 20260906013104 | 75 | 11 | 0.9 | 1.7 | 0.00 | 0.01 | 0.01 | 89 | 1012.3 |
| 20260906011605 | 75 | 0 | 0.0 | 1.7 | 0.00 | 0.01 | 0.01 | 87 | 1012.5 |
| 20260906010105 | 76 | 0 | 0.0 | 1.7 | 0.00 | 0.01 | 0.01 | 87 | 1012.5 |
| 20260906004603 | 76 | 144 | 0.0 | 1.7 | 0.00 | 0.01 | 0.01 | 86 | 1012.3 |
| 20260906003106 | 77 | 153 | 0.0 | 1.7 | 0.00 | 0.01 | 0.01 | 86 | 1012.3 |
| 20260906001603 | 77 | 0 | 0.0 | 2.6 | 0.00 | 0.01 | 0.01 | 85 | 1012.1 |
| 20260906000101 | 78 | 217 | 0.0 | 1.7 | 0.00 | 0.01 | 0.01 | 82 | 1011.9 |
| 20260905234613 | 79 | 0 | 0.9 | 1.7 | 0.00 | 0.01 | 0.01 | 81 | 1011.7 |
| 20260905233058 | 79 | 5 | 0.0 | 1.7 | 0.00 | 0.01 | 0.01 | 81 | 1011.6 |
| 20260905231556 | 80 | 5 | 0.0 | 1.7 | 0.00 | 0.01 | 0.01 | 77 | 1011.6 |
| 20260905224609 | 81 | 0 | 0.0 | 1.7 | 0.00 | 0.01 | 0.01 | 72 | 1011.8 |
| 20260905223056 | 80 | 0 | 0.0 | 1.7 | 0.00 | 0.01 | 0.01 | 75 | 1011.9 |
| 20260905221601 | 79 | 0 | 0.0 | 1.7 | 0.00 | 0.01 | 0.01 | 77 | 1011.7 |
| 20260905214606 | 79 | 0 | 0.0 | 1.7 | 0.00 | 0.01 | 0.01 | 78 | 1012.1 |
| 20260905213059 | 79 | 360 | 0.9 | 1.7 | 0.00 | 0.01 | 0.01 | 79 | 1012.1 |
| 20260905211602 | 78 | 0 | 0.0 | 1.7 | 0.00 | 0.01 | 0.01 | 81 | 1012.4 |
| 20260905210059 | 78 | 333 | 0.9 | 2.6 | 0.00 | 0.01 | 0.01 | 81 | 1012.4 |
| 20260905204556 | 77 | 334 | 0.9 | 2.6 | 0.00 | 0.01 | 0.01 | 80 | 1012.6 |
| 20260905203105 | 77 | 333 | 0.9 | 2.6 | 0.00 | 0.01 | 0.01 | 81 | 1012.4 |
| 20260905201606 | 76 | 329 | 0.9 | 3.5 | 0.00 | 0.01 | 0.01 | 81 | 1012.5 |
| 20260905200100 | 77 | 345 | 1.7 | 4.3 | 0.00 | 0.01 | 0.01 | 81 | 1013.0 |
| 20260905194558 | 77 | 241 | 2.6 | 4.3 | 0.00 | 0.01 | 0.01 | 81 | 1012.8 |
| 20260905193101 | 76 | 331 | 1.7 | 4.3 | 0.01 | 0.01 | 0.01 | 82 | 1013.3 |
| 20260905191613 | 76 | 9 | 1.7 | 7.0 | 0.01 | 0.01 | 0.01 | 84 | 1013.6 |
| 20260905190057 | 77 | 360 | 1.7 | 4.3 | 0.01 | 0.01 | 0.01 | 84 | 1013.4 |
| 20260905184610 | 79 | 333 | 0.9 | 8.7 | 0.01 | 0.01 | 0.01 | 80 | 1013.3 |
| 20260905183102 | 84 | 336 | 7.8 | 17.4 | 0.00 | 0.00 | 0.00 | 63 | 1013.0 |
| 20260905181559 | 91 | 352 | 1.7 | 4.3 | 0.00 | 0.00 | 0.00 | 55 | 1012.7 |
| 20260905180055 | 93 | 14 | 2.6 | 3.5 | 0.00 | 0.00 | 0.00 | 53 | 1012.7 |
| 20260905174609 | 94 | 323 | 1.7 | 3.5 | 0.00 | 0.00 | 0.00 | 54 | 1012.9 |
| 20260905173110 | 94 | 0 | 0.9 | 7.0 | 0.00 | 0.00 | 0.00 | 55 | 1013.1 |
| 20260905171558 | 93 | 9 | 0.9 | 5.2 | 0.00 | 0.00 | 0.00 | 58 | 1012.9 |
| 20260905170058 | 93 | 22 | 2.6 | 4.3 | 0.00 | 0.00 | 0.00 | 56 | 1013.3 |
| 20260905164600 | 92 | 240 | 2.6 | 5.2 | 0.00 | 0.00 | 0.00 | 61 | 1013.8 |
| 20260905163107 | 91 | 323 | 0.9 | 4.3 | 0.00 | 0.00 | 0.00 | 60 | 1013.9 |
| 20260905161558 | 91 | 292 | 0.0 | 3.5 | 0.00 | 0.00 | 0.00 | 60 | 1014.1 |
| 20260905160059 | 91 | 319 | 0.9 | 1.7 | 0.00 | 0.00 | 0.00 | 60 | 1014.1 |
| 20260905154605 | 90 | 203 | 0.9 | 2.6 | 0.00 | 0.00 | 0.00 | 61 | 1014.2 |
| 20260905153106 | 89 | 194 | 1.7 | 3.5 | 0.00 | 0.00 | 0.00 | 63 | 1014.2 |
| 20260905151559 | 89 | 304 | 0.9 | 1.7 | 0.00 | 0.00 | 0.00 | 64 | 1014.3 |
| 20260905150054 | 88 | 215 | 0.0 | 4.3 | 0.00 | 0.00 | 0.00 | 66 | 1014.3 |
| 20260905144601 | 87 | 250 | 0.0 | 1.7 | 0.00 | 0.00 | 0.00 | 71 | 1014.3 |
| 20260905143100 | 85 | 174 | 0.9 | 2.6 | 0.00 | 0.00 | 0.00 | 75 | 1014.4 |
| 20260905141612 | 84 | 246 | 0.9 | 4.3 | 0.00 | 0.00 | 0.00 | 75 | 1014.6 |
| 20260905140106 | 83 | 210 | 0.9 | 1.7 | 0.00 | 0.00 | 0.00 | 78 | 1014.6 |
| 20260905134607 | 83 | 207 | 0.9 | 1.7 | 0.00 | 0.00 | 0.00 | 78 | 1014.8 |
| 20260905133100 | 82 | 67 | 0.0 | 1.7 | 0.00 | 0.00 | 0.00 | 79 | 1014.8 |
| 20260905131601 | 81 | 352 | 0.0 | 1.7 | 0.00 | 0.00 | 0.00 | 83 | 1014.8 |
| 20260905130100 | 79 | 352 | 0.0 | 1.7 | 0.00 | 0.00 | 0.00 | 85 | 1014.9 |
| 20260905124606 | 78 | 0 | 0.0 | 1.7 | 0.00 | 0.00 | 0.00 | 87 | 1014.7 |
| 20260905123100 | 76 | 61 | 0.0 | 1.7 | 0.00 | 0.00 | 0.00 | 89 | 1014.7 |
| 20260905121558 | 74 | 0 | 0.0 | 1.7 | 0.00 | 0.00 | 0.00 | 92 | 1014.7 |
| 20260905120059 | 73 | 0 | 0.0 | 0.0 | 0.00 | 0.00 | 0.00 | 93 | 1014.6 |
| 20260905114633 | 73 | 0 | 0.0 | 1.7 | 0.00 | 0.00 | 0.00 | 93 | 1014.4 |
| 20260905113104 | 72 | 67 | 0.9 | 1.7 | 0.00 | 0.00 | 0.00 | 93 | 1014.4 |
| 20260905111601 | 72 | 0 | 0.0 | 1.7 | 0.00 | 0.00 | 0.00 | 93 | 1014.1 |
| 20260905110057 | 72 | 82 | 0.0 | 1.7 | 0.00 | 0.00 | 0.00 | 92 | 1013.9 |
| 20260905104559 | 72 | 82 | 0.0 | 0.9 | 0.00 | 0.00 | 0.00 | 92 | 1013.8 |
| 20260905103059 | 72 | 82 | 0.0 | 1.7 | 0.00 | 0.00 | 0.00 | 92 | 1013.7 |
| 20260905101600 | 72 | 0 | 0.0 | 0.0 | 0.00 | 0.00 | 0.00 | 92 | 1013.5 |
| 20260905100114 | 72 | 0 | 0.0 | 1.7 | 0.00 | 0.00 | 0.00 | 92 | 1013.4 |
| 20260905094622 | 72 | 0 | 0.0 | 0.9 | 0.00 | 0.00 | 0.00 | 91 | 1013.5 |
| 20260905093059 | 73 | 0 | 0.0 | 1.7 | 0.00 | 0.00 | 0.00 | 91 | 1013.4 |
| 20260905091614 | 73 | 82 | 0.9 | 1.7 | 0.00 | 0.00 | 0.00 | 91 | 1013.4 |
| 20260905090100 | 73 | 82 | 0.9 | 1.7 | 0.00 | 0.00 | 0.00 | 91 | 1013.4 |
| 20260905084604 | 73 | 0 | 0.0 | 1.7 | 0.00 | 0.02 | 0.00 | 90 | 1013.7 |
| 20260905083102 | 73 | 0 | 0.0 | 1.7 | 0.00 | 0.02 | 0.00 | 90 | 1013.7 |
| 20260905081555 | 74 | 0 | 0.0 | 0.9 | 0.00 | 0.02 | 0.00 | 90 | 1013.7 |
| 20260905080059 | 74 | 0 | 0.0 | 0.0 | 0.00 | 0.02 | 0.00 | 90 | 1013.8 |
| 20260905074602 | 74 | 0 | 0.0 | 1.7 | 0.00 | 0.37 | 0.00 | 89 | 1014.0 |
| 20260905073107 | 74 | 0 | 0.0 | 1.7 | 0.00 | 0.37 | 0.00 | 89 | 1014.0 |
| 20260905071555 | 75 | 0 | 0.0 | 1.7 | 0.00 | 0.37 | 0.00 | 89 | 1014.2 |
| 20260905070101 | 75 | 0 | 0.0 | 1.7 | 0.00 | 0.37 | 0.00 | 88 | 1014.2 |
| 20260905064611 | 75 | 13 | 0.0 | 1.7 | 0.00 | 0.37 | 0.00 | 88 | 1014.2 |
| 20260905063110 | 76 | 73 | 0.0 | 1.7 | 0.00 | 0.37 | 0.00 | 87 | 1014.4 |
| 20260905061615 | 76 | 0 | 0.0 | 1.7 | 0.00 | 0.37 | 0.00 | 86 | 1014.5 |